Terminal Aerodrome Forecast
Issued by NWS Austin/San Antonio, TX

Home | Current Version | Previous Version | Text Only | Print | Product List | Glossary On
Versions: 1 2 3 4 5 6 7 8 9 10 11 12 13 14 15 16 17 18 19
000
FTUS44 KEWX 182300
TAFDRT
TAF
KDRT 182339Z 1900/1924 12012KT P6SM BKN250
     FM190900 11010KT P6SM BKN015
     FM191700 13017KT P6SM OVC025
     FM191900 13014KT P6SM OVC045=

USA.gov is the U.S. government's official web portal to all federal, state and local government web resources and services.